My Meet Scores
Paige Sharfstein, Wilmette Gymnastics - MyMeetScores.com
Top100 | Top Teams | Upcoming Meets | Completed Meets | Latest | Add Scores | Help| Support | Bookmark and Share

Paige Sharfstein, Wilmette Gymnastics
Personal Bests
LevelVault BarsBeamFloorAA
48.5759.250 8.8258.50034.275
58.8008.200 8.5007.85033.350
68.9508.425 9.1009.12534.300
Meet Scores
Date Meet Team Session Level Division Vault Bars Beam Floor AA
2021-04-15 Illinois level 6 & Xcel Silver State Champion Wilmette Gymnastics 09 6 Sr C 8.475 25 8.100 29 8.400 27 9.125 28T 34.100 31
2021-02-27 2021 Energym Spring Classic Wilmette Gymnastics 6 6 Sr 8.575 9 8.075 9 8.500 9 8.850 8T 34.000 7
2021-02-19 BIG Classic 2021 Wilmette Gymnastics VIR 6 *** 8.950 38T 7.350 76 9.100 24T 8.200 70T 33.600 60T
2020-02-21 Kinetic Classic Wilmette Gymnastics 01 6 Middle 8.375 50 8.200 39 8.500 48 8.475 54 33.550 51
2020-01-24 Uga Invitational Wilmette Gymnastics 6A 6 Sr A 8.500 11 7.750 16 9.000 12 8.900 14T 34.150 15
2019-12-20 2019 Women's Hawaiian Pineapple Classic Wilmette Gymnastics 3A 6 Age 12 8.875 6 7.350 13 8.425 9 8.875 11 33.525 10
2019-02-01 St. Valentines Classic Wilmette Gymnastics 3A 6 9-11 yrs. 8.650 6 7.750 16* 8.850 12T 8.975 16 34.225 13T
2019-01-25 UGA Invitational Wilmette Gymnastics A08 6 Jr A 8.350 14 8.100 14 8.800 13T 8.575 13 33.825 15
2018-12-14 Hawaiian Pineapple Classic Wilmette Gymnastics 10A 6 Age11 8.450 13 8.425 7 8.925 8 8.500 15 34.300 10
2018-11-30 Ultimate Wish Classic Wilmette Gymnastics 1 6 CH 8.725 10T 8.150 10 8.600 13T 8.250 17 33.725 15
2018-11-17 Paul Hamm Thanksgiving Class WOMENS Wilmette Gymnastics 3 6 Middle 8.150 17 7.650 18 8.750 17T 8.750 18 33.300 18
2018-11-03 Phyllis Matras Invite Wilmette Gymnastics All 5 All 8.800 6T 8.200 18 8.500 11 7.850 27 33.350 20
2018-03-08 Level 4 & 5 State Wilmette Gymnastics All 4 Jr C 8.575 16T 8.650 13T 8.825 20T 8.150 27 34.200 21
2017-12-14 2017 Women's Hawaiian Pineapple Classic Wilmette Gymnastics 6A 4 Age10 7.750 14T 8.375 9 8.150 10T 7.550 15T 31.825 14
2017-12-01 Ultimate Wish Classic Wilmette Gymnastics 12 4 Jr C 8.400 12 8.550 6 8.800 4T 8.500 12 34.250 7
2017-11-16 Paul Hamm Thanksgiving Classic - Women Wilmette Gymnastics 6 4 Middle 8.200 17T 9.250 7 8.775 11 8.050 22 34.275 14
2017-11-04 Phyllis Matras Invite Wilmette Gymnastics 4 Jr D 8.450 4 8.400 6 7.200 11 7.800 7 31.850 9
2017-02-03 St. Valentines Classic Womens Wilmette Gymnastics 3A 4 7-9 yrs. 7.500 30 7.650 29 7.750 28 6.725 30 29.625 30
2017-01-27 2017 UGA Invitational Wilmette Gymnastics C11 4 Child 8.300 15 7.350 18 8.400 16T 7.500 19 31.550 19
2016-12-15 2016 Hawaiian Pineapple Sanction Wilmette Gymnastics 9A 4 Age 9 8.050 20T 6.900 22T 7.650 23 7.400 25 30.000 23
2016-12-02 Ultimate Wish Classic Wilmette Gymnastics 5 4 Jr A 7.550 19 6.800 18 7.800 24 7.150 25 29.300 21
Get your scores on
a t-shirt, pin, or hoodie